sensor_id;sensor_type;location;lat;lon;timestamp;P1;durP1;ratioP1;P2;durP2;ratioP2
62696;SDS011;48761;42.680;23.312;2022-07-29T00:00:18;11.90;;;8.05;;
62696;SDS011;48761;42.680;23.312;2022-07-29T00:02:44;12.13;;;8.30;;
62696;SDS011;48761;42.680;23.312;2022-07-29T00:05:09;11.25;;;8.13;;
62696;SDS011;48761;42.680;23.312;2022-07-29T00:07:35;12.45;;;8.38;;
62696;SDS011;48761;42.680;23.312;2022-07-29T00:10:01;11.75;;;9.02;;
62696;SDS011;48761;42.680;23.312;2022-07-29T00:12:28;11.07;;;8.50;;
62696;SDS011;48761;42.680;23.312;2022-07-29T00:14:54;10.80;;;8.57;;
62696;SDS011;48761;42.680;23.312;2022-07-29T00:17:20;12.50;;;8.82;;
62696;SDS011;48761;42.680;23.312;2022-07-29T00:19:47;10.73;;;8.20;;
62696;SDS011;48761;42.680;23.312;2022-07-29T00:22:12;9.90;;;8.60;;
62696;SDS011;48761;42.680;23.312;2022-07-29T00:24:38;10.65;;;8.52;;
62696;SDS011;48761;42.680;23.312;2022-07-29T00:27:04;11.80;;;8.90;;
62696;SDS011;48761;42.680;23.312;2022-07-29T00:29:30;10.02;;;7.90;;
62696;SDS011;48761;42.680;23.312;2022-07-29T00:31:56;12.63;;;7.88;;
62696;SDS011;48761;42.680;23.312;2022-07-29T00:34:22;12.10;;;8.68;;
62696;SDS011;48761;42.680;23.312;2022-07-29T00:36:48;10.45;;;8.10;;
62696;SDS011;48761;42.680;23.312;2022-07-29T00:39:14;11.38;;;8.00;;
62696;SDS011;48761;42.680;23.312;2022-07-29T00:41:39;10.73;;;8.40;;
62696;SDS011;48761;42.680;23.312;2022-07-29T00:44:05;8.63;;;7.72;;
62696;SDS011;48761;42.680;23.312;2022-07-29T00:46:31;11.65;;;8.23;;
62696;SDS011;48761;42.680;23.312;2022-07-29T00:48:57;9.80;;;7.57;;
62696;SDS011;48761;42.680;23.312;2022-07-29T00:51:23;12.75;;;8.85;;
62696;SDS011;48761;42.680;23.312;2022-07-29T00:53:51;10.63;;;9.23;;
62696;SDS011;48761;42.680;23.312;2022-07-29T00:56:18;12.32;;;9.88;;
62696;SDS011;48761;42.680;23.312;2022-07-29T00:58:44;11.18;;;9.70;;
62696;SDS011;48761;42.680;23.312;2022-07-29T01:01:13;12.00;;;10.30;;
62696;SDS011;48761;42.680;23.312;2022-07-29T01:03:39;17.50;;;10.77;;
62696;SDS011;48761;42.680;23.312;2022-07-29T01:06:05;14.27;;;10.95;;
62696;SDS011;48761;42.680;23.312;2022-07-29T01:08:31;12.73;;;10.60;;
62696;SDS011;48761;42.680;23.312;2022-07-29T01:10:58;14.60;;;10.82;;
62696;SDS011;48761;42.680;23.312;2022-07-29T01:13:26;14.32;;;11.05;;
62696;SDS011;48761;42.680;23.312;2022-07-29T01:15:56;13.88;;;10.25;;
62696;SDS011;48761;42.680;23.312;2022-07-29T01:18:39;14.25;;;10.85;;
62696;SDS011;48761;42.680;23.312;2022-07-29T01:23:59;17.27;;;10.82;;
62696;SDS011;48761;42.680;23.312;2022-07-29T01:26:33;15.23;;;10.75;;
62696;SDS011;48761;42.680;23.312;2022-07-29T01:29:21;14.75;;;10.52;;
62696;SDS011;48761;42.680;23.312;2022-07-29T01:31:59;13.32;;;10.88;;
62696;SDS011;48761;42.680;23.312;2022-07-29T01:34:41;14.40;;;11.00;;
62696;SDS011;48761;42.680;23.312;2022-07-29T01:37:31;13.43;;;11.05;;
62696;SDS011;48761;42.680;23.312;2022-07-29T01:40:31;13.73;;;10.85;;
62696;SDS011;48761;42.680;23.312;2022-07-29T01:43:11;13.35;;;11.15;;
62696;SDS011;48761;42.680;23.312;2022-07-29T01:45:43;15.10;;;11.70;;
62696;SDS011;48761;42.680;23.312;2022-07-29T01:48:15;13.95;;;11.15;;
62696;SDS011;48761;42.680;23.312;2022-07-29T01:50:50;18.05;;;11.35;;
62696;SDS011;48761;42.680;23.312;2022-07-29T01:53:33;15.05;;;11.60;;
62696;SDS011;48761;42.680;23.312;2022-07-29T01:56:02;13.20;;;10.98;;
62696;SDS011;48761;42.680;23.312;2022-07-29T01:58:29;14.23;;;10.90;;
62696;SDS011;48761;42.680;23.312;2022-07-29T02:00:58;12.13;;;10.32;;
62696;SDS011;48761;42.680;23.312;2022-07-29T02:03:25;16.98;;;11.48;;
62696;SDS011;48761;42.680;23.312;2022-07-29T02:05:53;14.70;;;11.52;;
62696;SDS011;48761;42.680;23.312;2022-07-29T02:08:22;15.23;;;11.27;;
62696;SDS011;48761;42.680;23.312;2022-07-29T02:10:49;16.67;;;11.73;;
62696;SDS011;48761;42.680;23.312;2022-07-29T02:13:17;13.52;;;10.80;;
62696;SDS011;48761;42.680;23.312;2022-07-29T02:15:46;17.98;;;11.38;;
62696;SDS011;48761;42.680;23.312;2022-07-29T02:18:16;15.60;;;11.68;;
62696;SDS011;48761;42.680;23.312;2022-07-29T02:20:47;15.18;;;11.98;;
62696;SDS011;48761;42.680;23.312;2022-07-29T02:23:16;16.60;;;10.77;;
62696;SDS011;48761;42.680;23.312;2022-07-29T02:25:44;14.60;;;11.30;;
62696;SDS011;48761;42.680;23.312;2022-07-29T02:28:17;14.10;;;11.95;;
62696;SDS011;48761;42.680;23.312;2022-07-29T02:30:45;16.55;;;11.77;;
62696;SDS011;48761;42.680;23.312;2022-07-29T02:33:13;13.30;;;11.20;;
62696;SDS011;48761;42.680;23.312;2022-07-29T02:35:41;14.93;;;11.65;;
62696;SDS011;48761;42.680;23.312;2022-07-29T02:38:12;15.57;;;11.90;;
62696;SDS011;48761;42.680;23.312;2022-07-29T02:40:40;13.68;;;11.77;;
62696;SDS011;48761;42.680;23.312;2022-07-29T02:43:08;15.38;;;11.45;;
62696;SDS011;48761;42.680;23.312;2022-07-29T02:45:36;17.00;;;11.25;;
62696;SDS011;48761;42.680;23.312;2022-07-29T02:48:05;17.17;;;11.10;;
62696;SDS011;48761;42.680;23.312;2022-07-29T02:50:37;14.50;;;12.10;;
62696;SDS011;48761;42.680;23.312;2022-07-29T02:53:08;13.63;;;11.45;;
62696;SDS011;48761;42.680;23.312;2022-07-29T02:55:43;13.95;;;11.43;;
62696;SDS011;48761;42.680;23.312;2022-07-29T02:58:15;14.40;;;11.18;;
62696;SDS011;48761;42.680;23.312;2022-07-29T03:00:55;14.52;;;11.82;;
62696;SDS011;48761;42.680;23.312;2022-07-29T03:03:24;16.63;;;12.35;;
62696;SDS011;48761;42.680;23.312;2022-07-29T03:05:59;15.48;;;11.50;;
62696;SDS011;48761;42.680;23.312;2022-07-29T03:08:28;17.42;;;11.70;;
62696;SDS011;48761;42.680;23.312;2022-07-29T03:10:55;16.42;;;11.88;;
62696;SDS011;48761;42.680;23.312;2022-07-29T03:13:21;15.57;;;11.32;;
62696;SDS011;48761;42.680;23.312;2022-07-29T03:15:49;17.90;;;10.85;;
62696;SDS011;48761;42.680;23.312;2022-07-29T03:18:15;16.08;;;10.98;;
62696;SDS011;48761;42.680;23.312;2022-07-29T03:20:42;16.20;;;11.90;;
62696;SDS011;48761;42.680;23.312;2022-07-29T03:23:08;16.67;;;11.15;;
62696;SDS011;48761;42.680;23.312;2022-07-29T03:25:34;13.05;;;10.90;;
62696;SDS011;48761;42.680;23.312;2022-07-29T03:28:00;17.13;;;10.23;;
62696;SDS011;48761;42.680;23.312;2022-07-29T03:30:26;14.20;;;10.02;;
62696;SDS011;48761;42.680;23.312;2022-07-29T03:32:52;14.00;;;10.50;;
62696;SDS011;48761;42.680;23.312;2022-07-29T03:35:22;12.52;;;9.35;;
62696;SDS011;48761;42.680;23.312;2022-07-29T03:37:48;14.52;;;9.90;;
62696;SDS011;48761;42.680;23.312;2022-07-29T03:40:27;14.45;;;9.43;;
62696;SDS011;48761;42.680;23.312;2022-07-29T03:42:59;10.93;;;8.55;;
62696;SDS011;48761;42.680;23.312;2022-07-29T03:45:27;14.48;;;9.57;;
62696;SDS011;48761;42.680;23.312;2022-07-29T03:48:00;13.68;;;9.68;;
62696;SDS011;48761;42.680;23.312;2022-07-29T03:50:29;10.50;;;8.77;;
62696;SDS011;48761;42.680;23.312;2022-07-29T03:52:56;14.38;;;9.00;;
62696;SDS011;48761;42.680;23.312;2022-07-29T03:55:23;13.55;;;8.35;;
62696;SDS011;48761;42.680;23.312;2022-07-29T03:57:51;10.05;;;8.15;;
62696;SDS011;48761;42.680;23.312;2022-07-29T04:00:17;10.93;;;8.20;;
62696;SDS011;48761;42.680;23.312;2022-07-29T04:02:43;13.60;;;8.73;;
62696;SDS011;48761;42.680;23.312;2022-07-29T04:05:13;16.48;;;10.15;;
62696;SDS011;48761;42.680;23.312;2022-07-29T04:07:40;16.02;;;10.85;;
62696;SDS011;48761;42.680;23.312;2022-07-29T04:10:10;14.30;;;10.55;;
62696;SDS011;48761;42.680;23.312;2022-07-29T04:12:36;14.88;;;10.77;;
62696;SDS011;48761;42.680;23.312;2022-07-29T04:15:03;20.20;;;11.30;;
62696;SDS011;48761;42.680;23.312;2022-07-29T04:17:29;20.58;;;11.77;;
62696;SDS011;48761;42.680;23.312;2022-07-29T04:19:55;15.90;;;10.68;;
62696;SDS011;48761;42.680;23.312;2022-07-29T04:22:21;17.40;;;11.00;;
62696;SDS011;48761;42.680;23.312;2022-07-29T04:24:47;16.00;;;9.95;;
62696;SDS011;48761;42.680;23.312;2022-07-29T04:27:13;11.85;;;9.75;;
62696;SDS011;48761;42.680;23.312;2022-07-29T04:29:39;14.75;;;9.88;;
62696;SDS011;48761;42.680;23.312;2022-07-29T04:32:05;12.50;;;9.35;;
62696;SDS011;48761;42.680;23.312;2022-07-29T04:34:31;16.15;;;9.82;;
62696;SDS011;48761;42.680;23.312;2022-07-29T04:36:57;12.77;;;9.20;;
62696;SDS011;48761;42.680;23.312;2022-07-29T04:39:23;11.98;;;8.90;;
62696;SDS011;48761;42.680;23.312;2022-07-29T04:41:50;13.38;;;9.50;;
62696;SDS011;48761;42.680;23.312;2022-07-29T04:44:16;16.83;;;8.65;;
62696;SDS011;48761;42.680;23.312;2022-07-29T04:46:41;14.60;;;9.13;;
62696;SDS011;48761;42.680;23.312;2022-07-29T04:49:07;13.43;;;9.85;;
62696;SDS011;48761;42.680;23.312;2022-07-29T04:51:33;11.82;;;8.70;;
62696;SDS011;48761;42.680;23.312;2022-07-29T04:54:00;12.85;;;9.05;;
62696;SDS011;48761;42.680;23.312;2022-07-29T04:56:26;29.45;;;7.90;;
62696;SDS011;48761;42.680;23.312;2022-07-29T04:58:52;8.82;;;5.05;;
62696;SDS011;48761;42.680;23.312;2022-07-29T05:01:18;7.65;;;4.28;;
62696;SDS011;48761;42.680;23.312;2022-07-29T05:03:44;12.30;;;5.38;;
62696;SDS011;48761;42.680;23.312;2022-07-29T05:06:10;21.83;;;6.47;;
62696;SDS011;48761;42.680;23.312;2022-07-29T05:08:36;9.43;;;5.03;;
62696;SDS011;48761;42.680;23.312;2022-07-29T05:11:02;13.02;;;4.40;;
62696;SDS011;48761;42.680;23.312;2022-07-29T05:13:29;7.85;;;4.60;;
62696;SDS011;48761;42.680;23.312;2022-07-29T05:15:55;5.88;;;4.22;;
62696;SDS011;48761;42.680;23.312;2022-07-29T05:18:21;8.20;;;4.20;;
62696;SDS011;48761;42.680;23.312;2022-07-29T05:20:47;8.68;;;4.40;;
62696;SDS011;48761;42.680;23.312;2022-07-29T05:23:13;7.13;;;4.40;;
62696;SDS011;48761;42.680;23.312;2022-07-29T05:25:39;7.85;;;4.50;;
62696;SDS011;48761;42.680;23.312;2022-07-29T05:28:05;9.38;;;4.53;;
62696;SDS011;48761;42.680;23.312;2022-07-29T05:30:31;8.60;;;4.93;;
62696;SDS011;48761;42.680;23.312;2022-07-29T05:32:57;8.20;;;6.38;;
62696;SDS011;48761;42.680;23.312;2022-07-29T05:35:23;19.15;;;9.27;;
62696;SDS011;48761;42.680;23.312;2022-07-29T05:37:49;16.52;;;8.30;;
62696;SDS011;48761;42.680;23.312;2022-07-29T05:40:14;11.95;;;7.68;;
62696;SDS011;48761;42.680;23.312;2022-07-29T05:42:40;11.45;;;8.32;;
62696;SDS011;48761;42.680;23.312;2022-07-29T05:45:06;10.75;;;7.13;;
62696;SDS011;48761;42.680;23.312;2022-07-29T05:47:32;8.35;;;6.43;;
62696;SDS011;48761;42.680;23.312;2022-07-29T05:49:58;13.13;;;6.82;;
62696;SDS011;48761;42.680;23.312;2022-07-29T05:52:24;9.63;;;5.93;;
62696;SDS011;48761;42.680;23.312;2022-07-29T05:54:50;10.18;;;6.80;;
62696;SDS011;48761;42.680;23.312;2022-07-29T05:57:16;20.88;;;7.57;;
62696;SDS011;48761;42.680;23.312;2022-07-29T05:59:47;22.20;;;7.70;;
62696;SDS011;48761;42.680;23.312;2022-07-29T06:02:14;15.82;;;6.38;;
62696;SDS011;48761;42.680;23.312;2022-07-29T06:04:40;13.50;;;6.10;;
62696;SDS011;48761;42.680;23.312;2022-07-29T06:07:07;14.55;;;6.22;;
62696;SDS011;48761;42.680;23.312;2022-07-29T06:09:33;12.75;;;5.72;;
62696;SDS011;48761;42.680;23.312;2022-07-29T06:11:59;16.50;;;5.95;;
62696;SDS011;48761;42.680;23.312;2022-07-29T06:14:25;8.30;;;5.40;;
62696;SDS011;48761;42.680;23.312;2022-07-29T06:16:52;15.18;;;5.57;;
62696;SDS011;48761;42.680;23.312;2022-07-29T06:19:18;8.68;;;5.43;;
62696;SDS011;48761;42.680;23.312;2022-07-29T06:21:44;15.30;;;5.70;;
62696;SDS011;48761;42.680;23.312;2022-07-29T06:24:12;7.43;;;5.40;;
62696;SDS011;48761;42.680;23.312;2022-07-29T06:26:38;11.05;;;5.30;;
62696;SDS011;48761;42.680;23.312;2022-07-29T06:29:05;10.43;;;5.35;;
62696;SDS011;48761;42.680;23.312;2022-07-29T06:31:34;9.02;;;5.20;;
62696;SDS011;48761;42.680;23.312;2022-07-29T06:34:00;7.53;;;5.22;;
62696;SDS011;48761;42.680;23.312;2022-07-29T06:36:26;13.85;;;5.38;;
62696;SDS011;48761;42.680;23.312;2022-07-29T06:38:52;8.98;;;4.78;;
62696;SDS011;48761;42.680;23.312;2022-07-29T06:41:17;8.68;;;4.85;;
62696;SDS011;48761;42.680;23.312;2022-07-29T06:43:44;7.65;;;4.90;;
62696;SDS011;48761;42.680;23.312;2022-07-29T06:46:11;24.30;;;5.70;;
62696;SDS011;48761;42.680;23.312;2022-07-29T06:48:39;7.35;;;4.78;;
62696;SDS011;48761;42.680;23.312;2022-07-29T06:51:06;16.20;;;5.40;;
62696;SDS011;48761;42.680;23.312;2022-07-29T06:53:32;14.85;;;5.05;;
62696;SDS011;48761;42.680;23.312;2022-07-29T06:55:59;14.73;;;5.20;;
62696;SDS011;48761;42.680;23.312;2022-07-29T06:58:27;17.38;;;5.68;;
62696;SDS011;48761;42.680;23.312;2022-07-29T07:00:53;14.18;;;5.55;;
62696;SDS011;48761;42.680;23.312;2022-07-29T07:03:20;53.60;;;7.82;;
62696;SDS011;48761;42.680;23.312;2022-07-29T07:05:47;23.20;;;6.25;;
62696;SDS011;48761;42.680;23.312;2022-07-29T07:08:13;30.17;;;6.18;;
62696;SDS011;48761;42.680;23.312;2022-07-29T07:10:39;28.65;;;6.35;;
62696;SDS011;48761;42.680;23.312;2022-07-29T07:13:05;24.45;;;5.68;;
62696;SDS011;48761;42.680;23.312;2022-07-29T07:15:31;23.60;;;6.00;;
62696;SDS011;48761;42.680;23.312;2022-07-29T07:17:57;20.10;;;5.90;;
62696;SDS011;48761;42.680;23.312;2022-07-29T07:20:24;18.45;;;5.35;;
62696;SDS011;48761;42.680;23.312;2022-07-29T07:22:50;11.63;;;5.43;;
62696;SDS011;48761;42.680;23.312;2022-07-29T07:25:16;18.20;;;5.45;;
62696;SDS011;48761;42.680;23.312;2022-07-29T07:27:43;10.48;;;5.05;;
62696;SDS011;48761;42.680;23.312;2022-07-29T07:30:12;16.38;;;5.00;;
62696;SDS011;48761;42.680;23.312;2022-07-29T07:32:38;10.70;;;4.88;;
62696;SDS011;48761;42.680;23.312;2022-07-29T07:35:05;13.35;;;4.60;;
62696;SDS011;48761;42.680;23.312;2022-07-29T07:37:32;18.73;;;5.50;;
62696;SDS011;48761;42.680;23.312;2022-07-29T07:39:58;33.70;;;5.82;;
62696;SDS011;48761;42.680;23.312;2022-07-29T07:42:24;14.73;;;5.25;;
62696;SDS011;48761;42.680;23.312;2022-07-29T07:44:50;45.00;;;7.47;;
62696;SDS011;48761;42.680;23.312;2022-07-29T07:47:16;18.17;;;5.20;;
62696;SDS011;48761;42.680;23.312;2022-07-29T07:49:42;33.50;;;5.68;;
62696;SDS011;48761;42.680;23.312;2022-07-29T07:52:08;43.75;;;7.97;;
62696;SDS011;48761;42.680;23.312;2022-07-29T07:54:34;91.82;;;10.63;;
62696;SDS011;48761;42.680;23.312;2022-07-29T07:57:00;33.47;;;6.15;;
62696;SDS011;48761;42.680;23.312;2022-07-29T07:59:26;30.17;;;6.38;;
62696;SDS011;48761;42.680;23.312;2022-07-29T08:01:52;27.45;;;6.43;;
62696;SDS011;48761;42.680;23.312;2022-07-29T08:04:18;25.05;;;6.07;;
62696;SDS011;48761;42.680;23.312;2022-07-29T08:06:43;22.20;;;6.05;;
62696;SDS011;48761;42.680;23.312;2022-07-29T08:09:09;28.70;;;6.38;;
62696;SDS011;48761;42.680;23.312;2022-07-29T08:11:35;25.73;;;6.05;;
62696;SDS011;48761;42.680;23.312;2022-07-29T08:14:01;82.80;;;9.93;;
62696;SDS011;48761;42.680;23.312;2022-07-29T08:16:27;57.55;;;7.55;;
62696;SDS011;48761;42.680;23.312;2022-07-29T08:18:53;46.17;;;7.85;;
62696;SDS011;48761;42.680;23.312;2022-07-29T08:21:19;37.22;;;6.85;;
62696;SDS011;48761;42.680;23.312;2022-07-29T08:23:45;38.85;;;6.65;;
62696;SDS011;48761;42.680;23.312;2022-07-29T08:26:11;30.33;;;5.97;;
62696;SDS011;48761;42.680;23.312;2022-07-29T08:28:39;29.70;;;6.53;;
62696;SDS011;48761;42.680;23.312;2022-07-29T08:31:06;36.53;;;6.38;;
62696;SDS011;48761;42.680;23.312;2022-07-29T08:33:32;31.88;;;6.30;;
62696;SDS011;48761;42.680;23.312;2022-07-29T08:35:58;34.20;;;6.35;;
62696;SDS011;48761;42.680;23.312;2022-07-29T08:38:24;31.88;;;6.28;;
62696;SDS011;48761;42.680;23.312;2022-07-29T08:40:50;37.75;;;7.28;;
62696;SDS011;48761;42.680;23.312;2022-07-29T08:43:16;24.88;;;5.75;;
62696;SDS011;48761;42.680;23.312;2022-07-29T08:45:43;23.20;;;6.70;;
62696;SDS011;48761;42.680;23.312;2022-07-29T08:48:14;31.05;;;6.25;;
62696;SDS011;48761;42.680;23.312;2022-07-29T08:50:41;38.90;;;8.07;;
62696;SDS011;48761;42.680;23.312;2022-07-29T08:53:12;37.45;;;6.53;;
62696;SDS011;48761;42.680;23.312;2022-07-29T08:55:42;33.15;;;7.18;;
62696;SDS011;48761;42.680;23.312;2022-07-29T08:58:08;26.85;;;7.35;;
62696;SDS011;48761;42.680;23.312;2022-07-29T09:00:35;23.90;;;7.47;;
62696;SDS011;48761;42.680;23.312;2022-07-29T09:03:02;56.25;;;9.13;;
62696;SDS011;48761;42.680;23.312;2022-07-29T09:05:30;38.28;;;7.65;;
62696;SDS011;48761;42.680;23.312;2022-07-29T09:07:58;34.65;;;7.30;;
62696;SDS011;48761;42.680;23.312;2022-07-29T09:10:25;41.83;;;7.80;;
62696;SDS011;48761;42.680;23.312;2022-07-29T09:12:51;37.55;;;7.50;;
62696;SDS011;48761;42.680;23.312;2022-07-29T09:15:17;26.00;;;6.75;;
62696;SDS011;48761;42.680;23.312;2022-07-29T09:17:44;64.78;;;8.02;;
62696;SDS011;48761;42.680;23.312;2022-07-29T09:20:12;68.50;;;9.23;;
62696;SDS011;48761;42.680;23.312;2022-07-29T09:22:40;47.80;;;7.30;;
62696;SDS011;48761;42.680;23.312;2022-07-29T09:25:06;32.22;;;5.70;;
62696;SDS011;48761;42.680;23.312;2022-07-29T09:27:32;18.77;;;4.70;;
62696;SDS011;48761;42.680;23.312;2022-07-29T09:29:58;12.63;;;4.45;;
62696;SDS011;48761;42.680;23.312;2022-07-29T09:32:26;13.30;;;4.97;;
62696;SDS011;48761;42.680;23.312;2022-07-29T09:37:45;14.82;;;4.50;;
62696;SDS011;48761;42.680;23.312;2022-07-29T09:40:15;8.75;;;4.20;;
62696;SDS011;48761;42.680;23.312;2022-07-29T09:42:45;7.10;;;4.07;;
62696;SDS011;48761;42.680;23.312;2022-07-29T09:45:11;7.78;;;4.20;;
62696;SDS011;48761;42.680;23.312;2022-07-29T09:47:42;8.93;;;4.55;;
62696;SDS011;48761;42.680;23.312;2022-07-29T09:50:10;6.15;;;3.88;;
62696;SDS011;48761;42.680;23.312;2022-07-29T09:52:49;5.50;;;4.50;;
62696;SDS011;48761;42.680;23.312;2022-07-29T09:55:16;9.38;;;4.72;;
62696;SDS011;48761;42.680;23.312;2022-07-29T09:57:43;7.78;;;4.38;;
62696;SDS011;48761;42.680;23.312;2022-07-29T10:00:14;15.13;;;4.80;;
62696;SDS011;48761;42.680;23.312;2022-07-29T10:02:44;10.07;;;4.65;;
62696;SDS011;48761;42.680;23.312;2022-07-29T10:05:21;8.88;;;4.05;;
62696;SDS011;48761;42.680;23.312;2022-07-29T10:10:24;14.95;;;5.00;;
62696;SDS011;48761;42.680;23.312;2022-07-29T10:12:55;11.25;;;4.63;;
62696;SDS011;48761;42.680;23.312;2022-07-29T10:15:28;11.57;;;4.32;;
62696;SDS011;48761;42.680;23.312;2022-07-29T10:17:56;10.82;;;4.90;;
62696;SDS011;48761;42.680;23.312;2022-07-29T10:20:22;15.75;;;4.70;;
62696;SDS011;48761;42.680;23.312;2022-07-29T10:22:49;8.55;;;4.63;;
62696;SDS011;48761;42.680;23.312;2022-07-29T10:25:16;7.32;;;4.30;;
62696;SDS011;48761;42.680;23.312;2022-07-29T10:27:44;12.00;;;4.50;;
62696;SDS011;48761;42.680;23.312;2022-07-29T10:30:13;11.50;;;3.83;;
62696;SDS011;48761;42.680;23.312;2022-07-29T10:33:15;18.70;;;4.45;;
62696;SDS011;48761;42.680;23.312;2022-07-29T10:39:00;8.95;;;3.97;;
62696;SDS011;48761;42.680;23.312;2022-07-29T10:41:56;9.02;;;3.95;;
62696;SDS011;48761;42.680;23.312;2022-07-29T10:44:31;7.15;;;3.85;;
62696;SDS011;48761;42.680;23.312;2022-07-29T10:46:58;5.75;;;3.58;;
62696;SDS011;48761;42.680;23.312;2022-07-29T10:49:25;8.88;;;4.25;;
62696;SDS011;48761;42.680;23.312;2022-07-29T10:51:53;33.22;;;5.65;;
62696;SDS011;48761;42.680;23.312;2022-07-29T10:54:39;34.10;;;5.80;;
62696;SDS011;48761;42.680;23.312;2022-07-29T10:57:16;19.40;;;4.60;;
62696;SDS011;48761;42.680;23.312;2022-07-29T11:07:31;18.17;;;5.57;;
62696;SDS011;48761;42.680;23.312;2022-07-29T11:15:06;21.88;;;4.90;;
62696;SDS011;48761;42.680;23.312;2022-07-29T11:23:47;18.20;;;5.13;;
62696;SDS011;48761;42.680;23.312;2022-07-29T11:28:50;28.25;;;5.53;;
62696;SDS011;48761;42.680;23.312;2022-07-29T11:40:17;32.00;;;5.75;;
62696;SDS011;48761;42.680;23.312;2022-07-29T11:45:09;36.60;;;6.05;;
62696;SDS011;48761;42.680;23.312;2022-07-29T11:47:38;23.52;;;5.63;;
62696;SDS011;48761;42.680;23.312;2022-07-29T11:50:07;19.30;;;4.87;;
62696;SDS011;48761;42.680;23.312;2022-07-29T11:52:39;14.52;;;5.00;;
62696;SDS011;48761;42.680;23.312;2022-07-29T11:55:06;14.75;;;4.93;;
62696;SDS011;48761;42.680;23.312;2022-07-29T11:57:32;12.95;;;4.72;;
62696;SDS011;48761;42.680;23.312;2022-07-29T11:59:59;16.27;;;4.93;;
62696;SDS011;48761;42.680;23.312;2022-07-29T12:02:25;12.35;;;4.40;;
62696;SDS011;48761;42.680;23.312;2022-07-29T12:05:04;13.02;;;4.50;;
62696;SDS011;48761;42.680;23.312;2022-07-29T12:07:31;13.38;;;4.43;;
62696;SDS011;48761;42.680;23.312;2022-07-29T12:09:58;8.65;;;4.10;;
62696;SDS011;48761;42.680;23.312;2022-07-29T12:12:25;11.20;;;4.25;;
62696;SDS011;48761;42.680;23.312;2022-07-29T12:14:51;14.00;;;4.25;;
62696;SDS011;48761;42.680;23.312;2022-07-29T12:17:30;12.40;;;4.10;;
62696;SDS011;48761;42.680;23.312;2022-07-29T12:19:57;10.82;;;4.03;;
62696;SDS011;48761;42.680;23.312;2022-07-29T12:22:27;12.27;;;4.20;;
62696;SDS011;48761;42.680;23.312;2022-07-29T12:24:54;7.15;;;4.15;;
62696;SDS011;48761;42.680;23.312;2022-07-29T12:27:20;10.18;;;3.70;;
62696;SDS011;48761;42.680;23.312;2022-07-29T12:29:56;6.93;;;3.55;;
62696;SDS011;48761;42.680;23.312;2022-07-29T12:32:39;5.95;;;3.63;;
62696;SDS011;48761;42.680;23.312;2022-07-29T12:35:10;10.75;;;4.30;;
62696;SDS011;48761;42.680;23.312;2022-07-29T12:37:39;11.38;;;3.90;;
62696;SDS011;48761;42.680;23.312;2022-07-29T12:40:07;10.02;;;4.00;;
62696;SDS011;48761;42.680;23.312;2022-07-29T12:42:35;31.80;;;5.57;;
62696;SDS011;48761;42.680;23.312;2022-07-29T12:45:01;28.80;;;6.13;;
62696;SDS011;48761;42.680;23.312;2022-07-29T12:47:27;38.97;;;6.07;;
62696;SDS011;48761;42.680;23.312;2022-07-29T12:50:09;20.70;;;4.90;;
62696;SDS011;48761;42.680;23.312;2022-07-29T12:52:39;13.15;;;4.82;;
62696;SDS011;48761;42.680;23.312;2022-07-29T12:55:05;14.18;;;4.85;;
62696;SDS011;48761;42.680;23.312;2022-07-29T12:57:35;11.07;;;4.45;;
62696;SDS011;48761;42.680;23.312;2022-07-29T13:00:13;17.53;;;5.70;;
62696;SDS011;48761;42.680;23.312;2022-07-29T13:02:41;14.35;;;4.80;;
62696;SDS011;48761;42.680;23.312;2022-07-29T13:05:08;16.75;;;5.40;;
62696;SDS011;48761;42.680;23.312;2022-07-29T13:07:35;11.13;;;5.53;;
62696;SDS011;48761;42.680;23.312;2022-07-29T13:10:14;14.65;;;5.07;;
62696;SDS011;48761;42.680;23.312;2022-07-29T13:13:00;10.38;;;4.90;;
62696;SDS011;48761;42.680;23.312;2022-07-29T13:15:35;10.85;;;4.97;;
62696;SDS011;48761;42.680;23.312;2022-07-29T13:18:02;14.45;;;5.15;;
62696;SDS011;48761;42.680;23.312;2022-07-29T13:20:29;15.70;;;5.50;;
62696;SDS011;48761;42.680;23.312;2022-07-29T13:22:56;7.03;;;4.80;;
62696;SDS011;48761;42.680;23.312;2022-07-29T13:25:24;36.97;;;7.10;;
62696;SDS011;48761;42.680;23.312;2022-07-29T13:27:54;37.13;;;7.82;;
62696;SDS011;48761;42.680;23.312;2022-07-29T13:30:21;20.02;;;5.68;;
62696;SDS011;48761;42.680;23.312;2022-07-29T13:32:48;14.73;;;5.38;;
62696;SDS011;48761;42.680;23.312;2022-07-29T13:35:14;20.08;;;5.35;;
62696;SDS011;48761;42.680;23.312;2022-07-29T13:37:40;16.75;;;6.00;;
62696;SDS011;48761;42.680;23.312;2022-07-29T13:40:07;10.57;;;5.18;;
62696;SDS011;48761;42.680;23.312;2022-07-29T13:42:34;14.77;;;4.97;;
62696;SDS011;48761;42.680;23.312;2022-07-29T13:45:00;11.10;;;5.05;;
62696;SDS011;48761;42.680;23.312;2022-07-29T13:47:26;17.23;;;5.30;;
62696;SDS011;48761;42.680;23.312;2022-07-29T13:49:53;16.63;;;4.90;;
62696;SDS011;48761;42.680;23.312;2022-07-29T13:52:19;9.77;;;4.90;;
62696;SDS011;48761;42.680;23.312;2022-07-29T13:54:45;14.77;;;4.55;;
62696;SDS011;48761;42.680;23.312;2022-07-29T13:57:12;37.70;;;6.75;;
62696;SDS011;48761;42.680;23.312;2022-07-29T13:59:39;25.52;;;6.10;;
62696;SDS011;48761;42.680;23.312;2022-07-29T14:02:06;8.85;;;4.30;;
62696;SDS011;48761;42.680;23.312;2022-07-29T14:04:32;24.75;;;4.82;;
62696;SDS011;48761;42.680;23.312;2022-07-29T14:06:59;13.77;;;5.10;;
62696;SDS011;48761;42.680;23.312;2022-07-29T14:09:24;21.20;;;5.80;;
62696;SDS011;48761;42.680;23.312;2022-07-29T14:11:50;11.63;;;5.53;;
62696;SDS011;48761;42.680;23.312;2022-07-29T14:14:16;30.40;;;6.95;;
62696;SDS011;48761;42.680;23.312;2022-07-29T14:16:42;16.15;;;5.63;;
62696;SDS011;48761;42.680;23.312;2022-07-29T14:19:08;12.20;;;6.05;;
62696;SDS011;48761;42.680;23.312;2022-07-29T14:21:34;13.98;;;6.20;;
62696;SDS011;48761;42.680;23.312;2022-07-29T14:24:00;17.88;;;5.97;;
62696;SDS011;48761;42.680;23.312;2022-07-29T14:26:26;9.30;;;5.47;;
62696;SDS011;48761;42.680;23.312;2022-07-29T14:28:53;11.00;;;5.93;;
62696;SDS011;48761;42.680;23.312;2022-07-29T14:31:19;13.45;;;5.97;;
62696;SDS011;48761;42.680;23.312;2022-07-29T14:33:44;10.02;;;5.95;;
62696;SDS011;48761;42.680;23.312;2022-07-29T14:36:10;14.05;;;5.53;;
62696;SDS011;48761;42.680;23.312;2022-07-29T14:38:36;7.07;;;5.55;;
62696;SDS011;48761;42.680;23.312;2022-07-29T14:41:03;9.27;;;5.47;;
62696;SDS011;48761;42.680;23.312;2022-07-29T14:43:29;7.55;;;5.53;;
62696;SDS011;48761;42.680;23.312;2022-07-29T14:45:55;11.32;;;5.75;;
62696;SDS011;48761;42.680;23.312;2022-07-29T14:48:21;8.75;;;5.47;;
62696;SDS011;48761;42.680;23.312;2022-07-29T14:50:47;6.10;;;5.50;;
62696;SDS011;48761;42.680;23.312;2022-07-29T14:53:12;7.15;;;5.45;;
62696;SDS011;48761;42.680;23.312;2022-07-29T14:55:39;7.90;;;6.20;;
62696;SDS011;48761;42.680;23.312;2022-07-29T14:58:05;7.93;;;5.72;;
62696;SDS011;48761;42.680;23.312;2022-07-29T15:00:31;7.43;;;5.70;;
62696;SDS011;48761;42.680;23.312;2022-07-29T15:02:56;7.78;;;5.68;;
62696;SDS011;48761;42.680;23.312;2022-07-29T15:05:22;6.57;;;5.50;;
62696;SDS011;48761;42.680;23.312;2022-07-29T15:07:48;7.20;;;5.70;;
62696;SDS011;48761;42.680;23.312;2022-07-29T15:10:14;7.43;;;5.60;;